createdAt,value
2023-05-04T00:00:02.440Z,1013.53
2023-05-04T00:01:02.121Z,1013.48
2023-05-04T00:02:02.135Z,1013.46
2023-05-04T00:03:01.997Z,1013.52
2023-05-04T00:04:02.318Z,1013.47
2023-05-04T00:05:02.292Z,1013.47
2023-05-04T00:06:02.224Z,1013.49
2023-05-04T00:07:02.225Z,1013.49
2023-05-04T00:08:02.506Z,1013.52
2023-05-04T00:09:02.272Z,1013.50
2023-05-04T00:10:02.251Z,1013.49
2023-05-04T00:11:02.589Z,1013.47
2023-05-04T00:12:02.439Z,1013.47
2023-05-04T00:13:02.887Z,1013.46
2023-05-04T00:14:02.583Z,1013.46
2023-05-04T00:15:02.492Z,1013.47
2023-05-04T00:16:02.466Z,1013.45
2023-05-04T00:17:01.856Z,1013.46
2023-05-04T00:18:01.965Z,1013.45
2023-05-04T00:19:02.349Z,1013.43
2023-05-04T00:20:02.501Z,1013.46
2023-05-04T00:21:01.992Z,1013.47
2023-05-04T00:22:02.680Z,1013.48
2023-05-04T00:23:03.125Z,1013.44
2023-05-04T00:24:02.704Z,1013.45
2023-05-04T00:25:02.596Z,1013.43
2023-05-04T00:26:03.093Z,1013.41
2023-05-04T00:27:02.961Z,1013.39
2023-05-04T00:28:02.855Z,1013.40
2023-05-04T00:29:02.642Z,1013.35
2023-05-04T00:30:03.376Z,1013.37
2023-05-04T00:31:02.528Z,1013.38
2023-05-04T00:32:02.223Z,1013.34
2023-05-04T00:33:02.719Z,1013.33
2023-05-04T00:34:02.445Z,1013.31
2023-05-04T00:35:02.346Z,1013.29
2023-05-04T00:36:02.614Z,1013.28
2023-05-04T00:37:02.405Z,1013.25
2023-05-04T00:38:02.299Z,1013.25
2023-05-04T00:39:02.434Z,1013.23
2023-05-04T00:40:02.604Z,1013.23
2023-05-04T00:41:02.570Z,1013.19
2023-05-04T00:42:02.879Z,1013.21
2023-05-04T00:43:02.867Z,1013.17
2023-05-04T00:44:03.182Z,1013.17
2023-05-04T00:45:03.283Z,1013.20
2023-05-04T00:46:02.985Z,1013.21
2023-05-04T00:47:03.335Z,1013.22
2023-05-04T00:48:03.219Z,1013.19
2023-05-04T00:49:03.035Z,1013.17
2023-05-04T00:50:03.181Z,1013.17
2023-05-04T00:51:02.836Z,1013.17
2023-05-04T00:52:02.534Z,1013.16
2023-05-04T00:53:02.790Z,1013.14
2023-05-04T00:54:02.229Z,1013.14
2023-05-04T00:55:02.860Z,1013.07
2023-05-04T00:56:02.468Z,1013.07
2023-05-04T00:57:02.282Z,1013.06
2023-05-04T00:58:02.009Z,1013.10
2023-05-04T00:59:01.958Z,1013.09
2023-05-04T01:00:02.102Z,1013.07
2023-05-04T01:01:02.161Z,1013.11
2023-05-04T01:02:02.743Z,1013.06
2023-05-04T01:03:02.701Z,1013.10
2023-05-04T01:04:02.942Z,1013.12
2023-05-04T01:05:02.495Z,1013.12
2023-05-04T01:06:03.028Z,1013.08
2023-05-04T01:07:02.401Z,1013.10
2023-05-04T01:08:02.597Z,1013.11
2023-05-04T01:09:02.683Z,1013.11
2023-05-04T01:10:02.705Z,1013.10
2023-05-04T01:11:02.482Z,1013.10
2023-05-04T01:12:02.098Z,1013.11
2023-05-04T01:13:01.971Z,1013.09
2023-05-04T01:14:01.969Z,1013.12
2023-05-04T01:15:01.864Z,1013.11
2023-05-04T01:16:02.411Z,1013.09
2023-05-04T01:17:02.637Z,1013.09
2023-05-04T01:18:03.001Z,1013.08
2023-05-04T01:19:02.531Z,1013.11
2023-05-04T01:20:02.725Z,1013.12
2023-05-04T01:21:02.365Z,1013.11
2023-05-04T01:22:02.687Z,1013.05
2023-05-04T01:23:02.667Z,1013.08
2023-05-04T01:24:02.875Z,1013.09
2023-05-04T01:25:02.683Z,1013.07
2023-05-04T01:26:02.672Z,1013.09
2023-05-04T01:27:01.999Z,1013.05
2023-05-04T01:28:02.017Z,1013.06
2023-05-04T01:29:01.878Z,1013.06
2023-05-04T01:30:02.596Z,1013.04
2023-05-04T01:31:02.457Z,1013.07
2023-05-04T01:32:02.870Z,1013.06
2023-05-04T01:33:02.816Z,1013.06
2023-05-04T01:34:02.606Z,1013.07
2023-05-04T01:35:02.596Z,1013.08
2023-05-04T01:36:02.511Z,1013.07
2023-05-04T01:37:02.101Z,1013.08
2023-05-04T01:38:01.906Z,1013.08
2023-05-04T01:39:01.758Z,1013.05
2023-05-04T01:40:01.839Z,1013.05
2023-05-04T01:41:01.875Z,1013.05
2023-05-04T01:42:01.919Z,1013.09
2023-05-04T01:43:01.926Z,1013.05
2023-05-04T01:44:02.484Z,1013.01
2023-05-04T01:45:02.070Z,1013.04
2023-05-04T01:46:02.048Z,1013.05
2023-05-04T01:47:02.392Z,1013.07
2023-05-04T01:48:02.428Z,1013.04
2023-05-04T01:49:02.333Z,1013.07
2023-05-04T01:50:02.427Z,1013.07
2023-05-04T01:51:02.664Z,1013.06
2023-05-04T01:52:02.383Z,1013.10
2023-05-04T01:53:01.967Z,1013.07
2023-05-04T01:54:02.169Z,1013.04
2023-05-04T01:55:02.048Z,1013.06
2023-05-04T01:56:01.947Z,1013.00
2023-05-04T01:57:02.538Z,1013.02
2023-05-04T01:58:02.155Z,1013.04
2023-05-04T01:59:02.599Z,1013.06
2023-05-04T02:00:02.785Z,1013.03
2023-05-04T02:01:02.121Z,1013.04
2023-05-04T02:02:02.653Z,1013.01
2023-05-04T02:03:02.592Z,1013.04
2023-05-04T02:04:02.780Z,1013.00
2023-05-04T02:05:02.226Z,1012.99
2023-05-04T02:06:02.188Z,1013.02
2023-05-04T02:07:02.784Z,1012.96
2023-05-04T02:08:02.293Z,1013.02
2023-05-04T02:09:02.853Z,1013.00
2023-05-04T02:10:02.720Z,1013.00
2023-05-04T02:11:02.862Z,1012.99
2023-05-04T02:12:02.570Z,1012.99
2023-05-04T02:13:03.181Z,1012.96
2023-05-04T02:14:02.899Z,1012.94
2023-05-04T02:15:02.918Z,1012.91
2023-05-04T02:16:02.784Z,1012.95
2023-05-04T02:17:02.349Z,1012.87
2023-05-04T02:18:02.298Z,1012.91
2023-05-04T02:19:02.167Z,1012.85
2023-05-04T02:20:02.531Z,1012.88
2023-05-04T02:21:02.372Z,1012.85
2023-05-04T02:22:02.062Z,1012.87
2023-05-04T02:23:02.606Z,1012.85
2023-05-04T02:24:02.286Z,1012.88
2023-05-04T02:25:02.059Z,1012.88
2023-05-04T02:26:02.468Z,1012.90
2023-05-04T02:27:02.985Z,1012.91
2023-05-04T02:28:03.045Z,1012.94
2023-05-04T02:29:02.759Z,1012.91
2023-05-04T02:30:03.283Z,1012.92
2023-05-04T02:31:02.699Z,1012.91
2023-05-04T02:32:03.215Z,1012.87
2023-05-04T02:33:02.826Z,1012.89
2023-05-04T02:34:02.763Z,1012.90
2023-05-04T02:35:02.796Z,1012.91
2023-05-04T02:36:02.633Z,1012.90
2023-05-04T02:37:04.124Z,1012.95
2023-05-04T02:38:02.777Z,1012.92
2023-05-04T02:39:02.578Z,1012.94
2023-05-04T02:40:02.767Z,1012.97
2023-05-04T02:41:02.797Z,1013.00
2023-05-04T02:42:01.830Z,1013.00
2023-05-04T02:43:01.710Z,1012.99
2023-05-04T02:44:01.790Z,1013.00
2023-05-04T02:45:02.265Z,1013.01
2023-05-04T02:46:01.859Z,1013.00
2023-05-04T02:47:02.797Z,1012.99
2023-05-04T02:48:02.851Z,1012.98
2023-05-04T02:49:02.805Z,1012.99
2023-05-04T02:50:02.739Z,1012.94
2023-05-04T02:51:02.678Z,1012.99
2023-05-04T02:52:02.839Z,1012.93
2023-05-04T02:53:03.165Z,1012.97
2023-05-04T02:54:02.986Z,1012.95
2023-05-04T02:55:03.163Z,1012.98
2023-05-04T02:56:02.756Z,1012.96
2023-05-04T02:57:02.966Z,1012.97
2023-05-04T02:58:02.567Z,1012.97
2023-05-04T02:59:03.233Z,1012.98
2023-05-04T03:00:03.000Z,1012.95
2023-05-04T03:01:02.814Z,1012.97
2023-05-04T03:02:02.665Z,1012.94
2023-05-04T03:03:03.285Z,1012.95
2023-05-04T03:04:03.134Z,1012.95
2023-05-04T03:05:02.925Z,1012.94
2023-05-04T03:06:02.767Z,1012.93
2023-05-04T03:07:02.738Z,1012.93
2023-05-04T03:08:02.404Z,1012.91
2023-05-04T03:09:02.292Z,1012.93
2023-05-04T03:10:02.845Z,1012.92
2023-05-04T03:11:02.660Z,1012.93
2023-05-04T03:12:03.006Z,1012.93
2023-05-04T03:13:02.866Z,1012.93
2023-05-04T03:14:02.874Z,1012.92
2023-05-04T03:15:02.793Z,1012.93
2023-05-04T03:16:02.793Z,1012.91
2023-05-04T03:17:02.097Z,1012.86
2023-05-04T03:18:02.562Z,1012.85
2023-05-04T03:19:02.099Z,1012.83
2023-05-04T03:20:02.720Z,1012.84
2023-05-04T03:21:02.374Z,1012.83
2023-05-04T03:22:02.185Z,1012.83
2023-05-04T03:23:02.357Z,1012.84
2023-05-04T03:24:02.135Z,1012.83
2023-05-04T03:25:02.450Z,1012.85
2023-05-04T03:26:02.192Z,1012.84
2023-05-04T03:27:02.801Z,1012.82
2023-05-04T03:28:03.286Z,1012.80
2023-05-04T03:29:03.225Z,1012.79
2023-05-04T03:30:03.094Z,1012.78
2023-05-04T03:31:03.131Z,1012.75
2023-05-04T03:32:02.044Z,1012.74
2023-05-04T03:33:02.354Z,1012.71
2023-05-04T03:34:02.228Z,1012.66
2023-05-04T03:35:03.957Z,1012.67
2023-05-04T03:36:01.875Z,1012.67
2023-05-04T03:37:02.241Z,1012.64
2023-05-04T03:38:02.441Z,1012.63
2023-05-04T03:39:02.779Z,1012.66
2023-05-04T03:40:02.321Z,1012.63
2023-05-04T03:41:02.692Z,1012.66
2023-05-04T03:42:02.397Z,1012.59
2023-05-04T03:43:02.901Z,1012.58
2023-05-04T03:44:02.749Z,1012.61
2023-05-04T03:45:04.057Z,1012.55
2023-05-04T03:46:02.332Z,1012.57
2023-05-04T03:47:02.120Z,1012.57
2023-05-04T03:48:02.255Z,1012.58
2023-05-04T03:49:02.256Z,1012.57
2023-05-04T03:50:02.487Z,1012.54
2023-05-04T03:51:02.284Z,1012.56
2023-05-04T03:52:02.370Z,1012.54
2023-05-04T03:53:02.270Z,1012.53
2023-05-04T03:54:02.315Z,1012.53
2023-05-04T03:55:02.596Z,1012.50
2023-05-04T03:56:02.551Z,1012.51
2023-05-04T03:57:02.412Z,1012.45
2023-05-04T03:58:02.215Z,1012.44
2023-05-04T03:59:02.811Z,1012.40
2023-05-04T04:00:02.567Z,1012.42
2023-05-04T04:01:02.446Z,1012.41
2023-05-04T04:02:03.122Z,1012.44
2023-05-04T04:03:03.412Z,1012.42
2023-05-04T04:04:03.282Z,1012.44
2023-05-04T04:05:02.984Z,1012.45
2023-05-04T04:06:02.786Z,1012.44
2023-05-04T04:07:02.438Z,1012.44
2023-05-04T04:08:02.475Z,1012.43
2023-05-04T04:09:02.640Z,1012.46
2023-05-04T04:10:03.089Z,1012.46
2023-05-04T04:11:02.762Z,1012.49
2023-05-04T04:12:02.978Z,1012.46
2023-05-04T04:13:02.905Z,1012.46
2023-05-04T04:14:02.661Z,1012.45
2023-05-04T04:15:02.572Z,1012.45
2023-05-04T04:16:03.184Z,1012.48
2023-05-04T04:17:03.117Z,1012.47
2023-05-04T04:18:03.222Z,1012.49
2023-05-04T04:19:03.022Z,1012.48
2023-05-04T04:20:03.075Z,1012.44
2023-05-04T04:21:02.932Z,1012.50
2023-05-04T04:22:02.609Z,1012.46
2023-05-04T04:23:02.237Z,1012.46
2023-05-04T04:24:02.509Z,1012.47
2023-05-04T04:25:02.348Z,1012.44
2023-05-04T04:26:02.238Z,1012.44
2023-05-04T04:27:02.933Z,1012.44
2023-05-04T04:28:03.171Z,1012.48
2023-05-04T04:29:02.979Z,1012.46
2023-05-04T04:30:03.042Z,1012.45
2023-05-04T04:31:03.021Z,1012.48
2023-05-04T04:32:02.627Z,1012.45
2023-05-04T04:33:03.028Z,1012.41
2023-05-04T04:34:02.910Z,1012.45
2023-05-04T04:35:02.865Z,1012.44
2023-05-04T04:36:03.127Z,1012.46
2023-05-04T04:37:02.690Z,1012.46
2023-05-04T04:38:03.953Z,1012.50
2023-05-04T04:39:02.791Z,1012.53
2023-05-04T04:40:02.737Z,1012.60
2023-05-04T04:41:02.603Z,1012.59
2023-05-04T04:42:02.722Z,1012.57
2023-05-04T04:43:02.561Z,1012.58
2023-05-04T04:44:02.505Z,1012.59
2023-05-04T04:45:02.239Z,1012.58
2023-05-04T04:46:02.369Z,1012.59
2023-05-04T04:47:03.120Z,1012.60
2023-05-04T04:48:03.229Z,1012.59
2023-05-04T04:49:03.024Z,1012.64
2023-05-04T04:50:03.173Z,1012.63
2023-05-04T04:51:02.561Z,1012.60
2023-05-04T04:52:02.969Z,1012.62
2023-05-04T04:53:03.044Z,1012.62
2023-05-04T04:54:03.044Z,1012.62
2023-05-04T04:55:02.998Z,1012.62
2023-05-04T04:56:03.078Z,1012.62
2023-05-04T04:57:02.638Z,1012.61
2023-05-04T04:58:02.696Z,1012.65
2023-05-04T04:59:02.321Z,1012.66
2023-05-04T05:00:02.824Z,1012.63
2023-05-04T05:01:02.938Z,1012.61
2023-05-04T05:02:02.751Z,1012.60
2023-05-04T05:03:03.021Z,1012.59
2023-05-04T05:04:03.125Z,1012.59
2023-05-04T05:05:03.227Z,1012.60
2023-05-04T05:06:02.908Z,1012.62
2023-05-04T05:07:03.521Z,1012.62
2023-05-04T05:08:03.071Z,1012.61
2023-05-04T05:09:03.151Z,1012.63
2023-05-04T05:10:03.599Z,1012.58
2023-05-04T05:11:03.554Z,1012.59
2023-05-04T05:12:02.933Z,1012.61
2023-05-04T05:13:02.993Z,1012.57
2023-05-04T05:14:03.037Z,1012.56
2023-05-04T05:15:03.122Z,1012.62
2023-05-04T05:16:02.707Z,1012.58
2023-05-04T05:17:03.242Z,1012.59
2023-05-04T05:18:03.208Z,1012.58
2023-05-04T05:19:02.924Z,1012.57
2023-05-04T05:20:02.927Z,1012.56
2023-05-04T05:21:03.330Z,1012.61
2023-05-04T05:22:03.464Z,1012.62
2023-05-04T05:23:03.460Z,1012.59
2023-05-04T05:24:02.939Z,1012.62
2023-05-04T05:25:03.210Z,1012.67
2023-05-04T05:26:03.555Z,1012.66
2023-05-04T05:27:02.510Z,1012.64
2023-05-04T05:28:02.556Z,1012.62
2023-05-04T05:29:02.760Z,1012.63
2023-05-04T05:30:02.941Z,1012.69
2023-05-04T05:31:03.056Z,1012.69
2023-05-04T05:32:02.631Z,1012.70
2023-05-04T05:33:03.000Z,1012.74
2023-05-04T05:34:03.055Z,1012.73
2023-05-04T05:35:02.980Z,1012.71
2023-05-04T05:36:02.918Z,1012.67
2023-05-04T05:37:03.041Z,1012.68
2023-05-04T05:38:03.114Z,1012.75
2023-05-04T05:39:03.141Z,1012.72
2023-05-04T05:40:03.315Z,1012.73
2023-05-04T05:41:03.442Z,1012.76
2023-05-04T05:42:02.555Z,1012.75
2023-05-04T05:43:02.752Z,1012.72
2023-05-04T05:44:02.815Z,1012.74
2023-05-04T05:45:03.141Z,1012.68
2023-05-04T05:46:02.880Z,1012.69
2023-05-04T05:47:03.023Z,1012.68
2023-05-04T05:48:03.317Z,1012.65
2023-05-04T05:49:03.286Z,1012.66
2023-05-04T05:50:03.829Z,1012.65
2023-05-04T05:51:03.462Z,1012.61
2023-05-04T05:52:03.067Z,1012.61
2023-05-04T05:53:02.437Z,1012.61
2023-05-04T05:54:02.530Z,1012.57
2023-05-04T05:55:02.890Z,1012.58
2023-05-04T05:56:02.865Z,1012.51
2023-05-04T05:57:03.041Z,1012.54
2023-05-04T05:58:02.881Z,1012.53
2023-05-04T05:59:03.056Z,1012.52
2023-05-04T06:00:03.622Z,1012.50
2023-05-04T06:01:03.435Z,1012.49
2023-05-04T06:02:02.117Z,1012.52
2023-05-04T06:03:02.095Z,1012.50
2023-05-04T06:04:02.059Z,1012.49
2023-05-04T06:05:02.558Z,1012.51
2023-05-04T06:06:02.010Z,1012.52
2023-05-04T06:07:02.698Z,1012.48
2023-05-04T06:08:02.719Z,1012.48
2023-05-04T06:09:02.816Z,1012.44
2023-05-04T06:10:03.201Z,1012.43
2023-05-04T06:11:02.706Z,1012.37
2023-05-04T06:12:01.976Z,1012.37
2023-05-04T06:13:02.270Z,1012.37
2023-05-04T06:14:02.270Z,1012.36
2023-05-04T06:15:01.956Z,1012.34
2023-05-04T06:16:01.976Z,1012.38
2023-05-04T06:17:02.457Z,1012.36
2023-05-04T06:18:02.749Z,1012.34
2023-05-04T06:19:02.996Z,1012.35
2023-05-04T06:20:02.798Z,1012.32
2023-05-04T06:21:02.496Z,1012.27
2023-05-04T06:22:01.692Z,1012.30
2023-05-04T06:23:01.747Z,1012.27
2023-05-04T06:24:02.144Z,1012.26
2023-05-04T06:25:05.929Z,1012.20
2023-05-04T06:26:01.815Z,1012.21
2023-05-04T06:27:01.928Z,1012.20
2023-05-04T06:28:02.012Z,1012.16
2023-05-04T06:29:02.000Z,1012.20
2023-05-04T06:30:02.104Z,1012.17
2023-05-04T06:31:02.255Z,1012.20
2023-05-04T06:32:02.901Z,1012.22
2023-05-04T06:33:02.861Z,1012.22
2023-05-04T06:34:02.264Z,1012.23
2023-05-04T06:35:02.328Z,1012.21
2023-05-04T06:36:02.688Z,1012.17
2023-05-04T06:37:02.848Z,1012.19
2023-05-04T06:38:02.743Z,1012.19
2023-05-04T06:39:02.406Z,1012.21
2023-05-04T06:40:02.679Z,1012.14
2023-05-04T06:41:02.852Z,1012.15
2023-05-04T06:42:02.716Z,1012.17
2023-05-04T06:43:03.001Z,1012.16
2023-05-04T06:44:02.596Z,1012.17
2023-05-04T06:45:02.587Z,1012.19
2023-05-04T14:14:23.432Z,1007.08
2023-05-04T14:15:23.590Z,1007.07
2023-05-04T14:16:23.045Z,1007.08
2023-05-04T14:17:22.969Z,1007.10
2023-05-04T14:18:23.091Z,1007.09
2023-05-04T14:19:23.348Z,1007.07
2023-05-04T14:20:23.328Z,1007.02
2023-05-04T14:21:23.685Z,1007.01
2023-05-04T14:22:23.882Z,1006.98
2023-05-04T14:23:23.946Z,1006.95
2023-05-04T14:24:24.126Z,1007.01
2023-05-04T14:25:24.085Z,1006.92
2023-05-04T14:26:23.075Z,1007.03
2023-05-04T14:27:23.240Z,1006.85
2023-05-04T14:29:27.904Z,1006.94
2023-05-04T14:30:27.894Z,1006.91
2023-05-04T14:31:28.003Z,1006.94
2023-05-04T14:32:27.827Z,1006.99
2023-05-04T14:33:28.012Z,1006.93
2023-05-04T14:33:32.980Z,1006.94
2023-05-04T14:34:02.554Z,1006.95
2023-05-04T14:35:02.641Z,1006.94
2023-05-04T14:36:02.179Z,1006.97
2023-05-04T14:37:02.455Z,1006.94
2023-05-04T14:38:02.246Z,1006.92
2023-05-04T14:39:03.204Z,1006.93
2023-05-04T14:40:03.200Z,1006.92
2023-05-04T14:41:03.161Z,1006.91
2023-05-04T14:42:02.691Z,1006.85
2023-05-04T14:43:02.935Z,1006.82
2023-05-04T14:44:02.919Z,1006.80
2023-05-04T14:53:02.951Z,1006.65
2023-05-04T14:59:03.028Z,1006.46
2023-05-04T15:00:02.955Z,1006.50
2023-05-04T15:01:02.499Z,1006.43
2023-05-04T15:02:02.697Z,1006.45
2023-05-04T15:03:02.998Z,1006.40
2023-05-04T15:04:01.942Z,1006.42
2023-05-04T15:05:02.260Z,1006.39
2023-05-04T15:06:02.532Z,1006.39
2023-05-04T15:07:02.260Z,1006.42
2023-05-04T15:08:02.003Z,1006.43
2023-05-04T15:09:02.120Z,1006.41
2023-05-04T15:10:02.254Z,1006.43
2023-05-04T15:11:02.614Z,1006.38
2023-05-04T15:12:02.200Z,1006.37
2023-05-04T15:13:02.393Z,1006.34
2023-05-04T15:14:02.622Z,1006.31
2023-05-04T15:15:02.709Z,1006.29
2023-05-04T15:16:02.635Z,1006.27
2023-05-04T15:17:03.249Z,1006.28
2023-05-04T15:18:03.148Z,1006.24
2023-05-04T15:19:02.132Z,1006.27
2023-05-04T15:20:02.224Z,1006.23
2023-05-04T15:21:02.296Z,1006.20
2023-05-04T15:22:02.557Z,1006.23
2023-05-04T15:23:02.134Z,1006.24
2023-05-04T15:24:02.847Z,1006.17
2023-05-04T15:25:02.989Z,1006.13
2023-05-04T15:26:03.225Z,1006.13
2023-05-04T15:27:03.113Z,1006.10
2023-05-04T15:28:02.891Z,1006.10
2023-05-04T15:29:02.375Z,1006.08
2023-05-04T15:30:02.638Z,1006.14
2023-05-04T15:31:02.699Z,1006.09
2023-05-04T15:32:02.894Z,1006.09
2023-05-04T15:33:02.394Z,1006.10
2023-05-04T15:34:03.164Z,1006.09
2023-05-04T15:35:05.702Z,1006.11
2023-05-04T15:36:03.127Z,1006.12
2023-05-04T15:37:03.097Z,1006.13
2023-05-04T15:38:02.599Z,1006.13
2023-05-04T15:39:02.870Z,1006.11
2023-05-04T15:40:03.118Z,1006.18
2023-05-04T15:41:03.342Z,1006.19
2023-05-04T15:42:03.080Z,1006.15
2023-05-04T15:43:02.786Z,1006.19
2023-05-04T15:44:03.217Z,1006.22
2023-05-04T15:45:03.319Z,1006.18
2023-05-04T15:46:03.046Z,1006.17
2023-05-04T15:47:03.440Z,1006.21
2023-05-04T15:48:03.508Z,1006.19
2023-05-04T15:49:02.566Z,1006.18
2023-05-04T15:50:02.518Z,1006.13
2023-05-04T15:51:02.464Z,1006.17
2023-05-04T15:52:02.444Z,1006.13
2023-05-04T15:53:02.484Z,1006.10
2023-05-04T15:54:02.608Z,1006.08
2023-05-04T15:55:16.464Z,1006.00
2023-05-04T15:56:05.011Z,1005.97
2023-05-04T15:57:02.765Z,1005.98
2023-05-04T15:58:02.747Z,1005.90
2023-05-04T15:59:03.012Z,1005.88
2023-05-04T16:00:03.056Z,1005.90
2023-05-04T16:01:03.396Z,1005.95
2023-05-04T16:02:03.321Z,1005.89
2023-05-04T16:03:02.881Z,1005.93
2023-05-04T16:04:03.460Z,1005.93
2023-05-04T16:05:03.313Z,1005.95
2023-05-04T16:06:02.910Z,1005.95
2023-05-04T16:07:03.079Z,1005.96
2023-05-04T16:08:03.055Z,1005.95
2023-05-04T16:09:02.357Z,1005.94
2023-05-04T16:10:02.523Z,1005.98
2023-05-04T16:11:02.641Z,1005.94
2023-05-04T16:12:02.720Z,1005.95
2023-05-04T16:13:02.371Z,1005.96
2023-05-04T16:14:02.559Z,1005.95
2023-05-04T16:15:02.983Z,1005.92
2023-05-04T16:16:02.619Z,1005.92
2023-05-04T16:17:02.916Z,1005.93
2023-05-04T16:18:02.977Z,1005.93
2023-05-04T16:19:02.954Z,1005.99
2023-05-04T16:20:03.046Z,1005.98
2023-05-04T16:21:03.288Z,1005.99
2023-05-04T16:22:03.094Z,1005.96
2023-05-04T16:23:02.901Z,1005.92
2023-05-04T16:24:03.032Z,1005.97
2023-05-04T16:25:03.139Z,1005.92
2023-05-04T16:26:03.372Z,1005.88
2023-05-04T16:27:03.440Z,1005.89
2023-05-04T16:28:03.353Z,1005.86
2023-05-04T16:29:02.518Z,1005.92
2023-05-04T16:30:02.671Z,1005.95
2023-05-04T16:31:02.483Z,1005.93
2023-05-04T16:32:02.613Z,1005.96
2023-05-04T16:33:02.633Z,1005.94
2023-05-04T16:34:03.159Z,1005.99
2023-05-04T16:35:03.375Z,1005.94
2023-05-04T16:36:02.868Z,1005.97
2023-05-04T16:37:02.988Z,1005.94
2023-05-04T16:38:03.124Z,1005.96
2023-05-04T16:39:03.362Z,1005.98
2023-05-04T16:40:03.545Z,1006.02
2023-05-04T16:41:03.376Z,1006.00
2023-05-04T16:42:03.390Z,1006.00
2023-05-04T16:43:03.516Z,1005.96
2023-05-04T16:44:02.676Z,1005.93
2023-05-04T16:45:02.733Z,1005.90
2023-05-04T16:46:02.939Z,1005.88
2023-05-04T16:47:03.055Z,1005.84
2023-05-04T16:48:03.016Z,1005.85
2023-05-04T16:49:03.020Z,1005.87
2023-05-04T16:50:03.407Z,1005.86
2023-05-04T16:51:02.924Z,1005.85
2023-05-04T16:52:03.074Z,1005.83
2023-05-04T16:53:03.280Z,1005.80
2023-05-04T16:54:03.317Z,1005.83
2023-05-04T16:55:03.030Z,1005.84
2023-05-04T16:56:02.986Z,1005.83
2023-05-04T16:57:03.024Z,1005.84
2023-05-04T16:58:03.141Z,1005.84
2023-05-04T16:59:02.992Z,1005.81
2023-05-04T17:00:02.808Z,1005.82
2023-05-04T17:01:03.039Z,1005.80
2023-05-04T17:02:03.031Z,1005.84
2023-05-04T17:03:03.419Z,1005.78
2023-05-04T17:04:02.556Z,1005.84
2023-05-04T17:05:02.369Z,1005.84
2023-05-04T17:06:02.622Z,1005.81
2023-05-04T17:07:02.455Z,1005.81
2023-05-04T17:08:02.687Z,1005.84
2023-05-04T17:09:02.442Z,1005.86
2023-05-04T17:10:02.700Z,1005.90
2023-05-04T17:11:02.375Z,1005.90
2023-05-04T17:12:02.593Z,1005.89
2023-05-04T17:13:02.824Z,1005.93
2023-05-04T17:14:02.866Z,1005.91
2023-05-04T17:15:02.547Z,1005.89
2023-05-04T17:16:02.627Z,1005.85
2023-05-04T17:17:02.693Z,1005.85
2023-05-04T17:18:03.010Z,1005.84
2023-05-04T17:19:02.926Z,1005.82
2023-05-04T17:20:02.566Z,1005.91
2023-05-04T17:21:02.764Z,1005.93
2023-05-04T17:22:02.844Z,1005.93
2023-05-04T17:23:03.077Z,1005.95
2023-05-04T17:24:02.715Z,1006.00
2023-05-04T17:25:02.744Z,1005.98
2023-05-04T17:26:02.340Z,1006.02
2023-05-04T17:27:02.594Z,1006.02
2023-05-04T17:28:02.430Z,1006.00
2023-05-04T17:29:02.426Z,1006.02
2023-05-04T17:30:02.365Z,1006.00
2023-05-04T17:31:01.919Z,1005.99
2023-05-04T17:32:02.177Z,1005.98
2023-05-04T17:33:02.505Z,1006.00
2023-05-04T17:34:02.481Z,1005.98
2023-05-04T17:35:20.445Z,1005.96
2023-05-04T17:36:01.940Z,1006.00
2023-05-04T17:37:02.086Z,1005.97
2023-05-04T17:38:02.081Z,1005.98
2023-05-04T17:39:02.189Z,1005.99
2023-05-04T17:40:02.452Z,1006.01
2023-05-04T17:41:02.761Z,1006.00
2023-05-04T17:42:02.709Z,1006.01
2023-05-04T17:43:02.623Z,1006.03
2023-05-04T17:44:02.778Z,1006.04
2023-05-04T17:45:02.257Z,1006.08
2023-05-04T17:46:02.966Z,1006.06
2023-05-04T17:47:02.907Z,1006.10
2023-05-04T17:48:02.841Z,1006.10
2023-05-04T17:49:02.985Z,1006.08
2023-05-04T17:50:02.469Z,1006.11
2023-05-04T17:51:02.462Z,1006.08
2023-05-04T17:52:02.578Z,1006.07
2023-05-04T17:53:02.628Z,1006.05
2023-05-04T17:54:03.342Z,1006.01
2023-05-04T17:55:03.386Z,1006.00
2023-05-04T17:56:03.271Z,1006.02
2023-05-04T17:57:03.170Z,1006.05
2023-05-04T17:58:03.344Z,1006.06
2023-05-04T17:59:02.957Z,1006.09
2023-05-04T18:00:02.654Z,1006.11
2023-05-04T18:01:02.817Z,1006.15
2023-05-04T18:02:03.134Z,1006.19
2023-05-04T18:03:02.942Z,1006.18
2023-05-04T18:04:02.620Z,1006.17
2023-05-04T18:05:02.488Z,1006.19
2023-05-04T18:06:02.146Z,1006.16
2023-05-04T18:07:02.406Z,1006.16
2023-05-04T18:08:02.581Z,1006.17
2023-05-04T18:09:01.561Z,1006.14
2023-05-04T18:10:01.743Z,1006.14
2023-05-04T18:11:01.782Z,1006.10
2023-05-04T18:12:01.707Z,1006.12
2023-05-04T18:13:01.904Z,1006.09
2023-05-04T18:14:02.731Z,1006.14
2023-05-04T18:15:02.166Z,1006.15
2023-05-04T18:16:02.470Z,1006.14
2023-05-04T18:17:02.159Z,1006.14
2023-05-04T18:18:02.317Z,1006.19
2023-05-04T18:19:02.534Z,1006.16
2023-05-04T18:20:02.881Z,1006.21
2023-05-04T18:21:03.081Z,1006.19
2023-05-04T18:22:02.846Z,1006.16
2023-05-04T18:23:02.984Z,1006.17
2023-05-04T18:24:02.540Z,1006.15
2023-05-04T18:25:02.842Z,1006.15
2023-05-04T18:26:03.076Z,1006.15
2023-05-04T18:27:02.735Z,1006.15
2023-05-04T18:28:02.832Z,1006.14
2023-05-04T18:29:17.415Z,1006.15
2023-05-04T18:30:02.067Z,1006.19
2023-05-04T18:31:02.069Z,1006.19
2023-05-04T18:32:02.267Z,1006.17
2023-05-04T18:33:02.305Z,1006.20
2023-05-04T18:34:02.533Z,1006.22
2023-05-04T18:35:02.969Z,1006.27
2023-05-04T18:36:02.763Z,1006.28
2023-05-04T18:37:02.885Z,1006.28
2023-05-04T18:38:02.858Z,1006.26
2023-05-04T18:39:02.587Z,1006.22
2023-05-04T18:40:02.711Z,1006.22
2023-05-04T18:41:02.717Z,1006.19
2023-05-04T18:42:02.687Z,1006.21
2023-05-04T18:43:02.556Z,1006.25
2023-05-04T18:44:02.720Z,1006.26
2023-05-04T18:45:03.099Z,1006.24
2023-05-04T18:46:03.434Z,1006.26
2023-05-04T18:47:03.324Z,1006.26
2023-05-04T18:48:03.148Z,1006.26
2023-05-04T18:49:02.594Z,1006.28
2023-05-04T18:50:02.902Z,1006.34
2023-05-04T18:51:02.665Z,1006.33
2023-05-04T18:52:02.501Z,1006.39
2023-05-04T18:53:02.595Z,1006.41
2023-05-04T18:54:02.672Z,1006.41
2023-05-04T18:55:02.853Z,1006.45
2023-05-04T18:56:02.933Z,1006.46
2023-05-04T18:57:03.142Z,1006.48
2023-05-04T18:58:03.068Z,1006.50
2023-05-04T18:59:02.210Z,1006.49
2023-05-04T19:00:02.801Z,1006.45
2023-05-04T19:01:02.775Z,1006.49
2023-05-04T19:02:02.157Z,1006.48
2023-05-04T19:03:02.281Z,1006.48
2023-05-04T19:04:02.509Z,1006.52
2023-05-04T19:05:02.655Z,1006.50
2023-05-04T19:06:02.572Z,1006.53
2023-05-04T19:07:02.812Z,1006.53
2023-05-04T19:08:02.575Z,1006.52
2023-05-04T19:09:01.976Z,1006.49
2023-05-04T19:10:02.056Z,1006.51
2023-05-04T19:11:02.282Z,1006.53
2023-05-04T19:12:02.002Z,1006.54
2023-05-04T19:13:02.194Z,1006.54
2023-05-04T19:14:02.532Z,1006.55
2023-05-04T19:15:02.505Z,1006.53
2023-05-04T19:16:02.644Z,1006.54
2023-05-04T19:17:02.926Z,1006.52
2023-05-04T19:18:02.653Z,1006.54
2023-05-04T19:19:02.695Z,1006.53
2023-05-04T19:20:02.835Z,1006.53
2023-05-04T19:21:02.782Z,1006.52
2023-05-04T19:22:02.833Z,1006.54
2023-05-04T19:23:03.056Z,1006.53
2023-05-04T19:24:02.156Z,1006.55
2023-05-04T19:25:02.196Z,1006.56
2023-05-04T19:26:02.273Z,1006.59
2023-05-04T19:27:02.420Z,1006.66
2023-05-04T19:28:02.448Z,1006.65
2023-05-04T19:29:02.230Z,1006.62
2023-05-04T19:30:02.268Z,1006.63
2023-05-04T19:31:02.317Z,1006.63
2023-05-04T19:32:12.120Z,1006.64
2023-05-04T19:33:02.480Z,1006.66
2023-05-04T19:34:02.452Z,1006.65
2023-05-04T19:35:02.615Z,1006.66
2023-05-04T19:36:02.600Z,1006.63
2023-05-04T19:37:02.566Z,1006.65
2023-05-04T19:38:02.282Z,1006.66
2023-05-04T19:39:02.276Z,1006.67
2023-05-04T19:40:02.239Z,1006.68
2023-05-04T19:41:02.530Z,1006.69
2023-05-04T19:42:02.192Z,1006.70
2023-05-04T19:43:02.296Z,1006.72
2023-05-04T19:44:02.534Z,1006.71
2023-05-04T19:45:02.346Z,1006.72
2023-05-04T19:46:02.317Z,1006.71